sensor_id;sensor_type;location;lat;lon;timestamp;temperature;humidity
15937;DHT22;9163;48.818;8.976;2023-12-20T00:02:22;5.10;99.90
15937;DHT22;9163;48.818;8.976;2023-12-20T00:04:49;5.10;99.90
15937;DHT22;9163;48.818;8.976;2023-12-20T00:07:17;5.10;99.90
15937;DHT22;9163;48.818;8.976;2023-12-20T00:09:44;5.10;99.90
15937;DHT22;9163;48.818;8.976;2023-12-20T00:12:11;5.10;99.90
15937;DHT22;9163;48.818;8.976;2023-12-20T00:14:38;5.10;99.90
15937;DHT22;9163;48.818;8.976;2023-12-20T00:17:07;5.10;99.90
15937;DHT22;9163;48.818;8.976;2023-12-20T00:19:34;5.10;99.90
15937;DHT22;9163;48.818;8.976;2023-12-20T00:22:02;5.20;99.90
15937;DHT22;9163;48.818;8.976;2023-12-20T00:24:29;5.20;99.90
15937;DHT22;9163;48.818;8.976;2023-12-20T00:26:56;5.20;99.90
15937;DHT22;9163;48.818;8.976;2023-12-20T00:29:23;5.20;99.90
15937;DHT22;9163;48.818;8.976;2023-12-20T00:31:50;5.20;99.90
15937;DHT22;9163;48.818;8.976;2023-12-20T00:34:19;5.20;99.90
15937;DHT22;9163;48.818;8.976;2023-12-20T00:36:46;5.10;99.90
15937;DHT22;9163;48.818;8.976;2023-12-20T00:39:14;5.10;99.90
15937;DHT22;9163;48.818;8.976;2023-12-20T00:41:41;5.10;99.90
15937;DHT22;9163;48.818;8.976;2023-12-20T00:44:08;5.10;99.90
15937;DHT22;9163;48.818;8.976;2023-12-20T00:46:36;5.10;99.90
15937;DHT22;9163;48.818;8.976;2023-12-20T00:49:03;5.10;99.90
15937;DHT22;9163;48.818;8.976;2023-12-20T00:51:31;5.10;99.90
15937;DHT22;9163;48.818;8.976;2023-12-20T00:53:59;5.10;99.90
15937;DHT22;9163;48.818;8.976;2023-12-20T00:56:26;5.10;99.90
15937;DHT22;9163;48.818;8.976;2023-12-20T00:58:53;5.10;99.90
15937;DHT22;9163;48.818;8.976;2023-12-20T01:01:21;5.10;99.90
15937;DHT22;9163;48.818;8.976;2023-12-20T01:03:48;5.20;99.90
15937;DHT22;9163;48.818;8.976;2023-12-20T01:06:17;5.10;99.90
15937;DHT22;9163;48.818;8.976;2023-12-20T01:08:45;5.10;99.90
15937;DHT22;9163;48.818;8.976;2023-12-20T01:11:13;5.10;99.90
15937;DHT22;9163;48.818;8.976;2023-12-20T01:13:40;5.10;99.90
15937;DHT22;9163;48.818;8.976;2023-12-20T01:16:10;5.10;99.90
15937;DHT22;9163;48.818;8.976;2023-12-20T01:18:37;5.00;99.90
15937;DHT22;9163;48.818;8.976;2023-12-20T01:21:05;5.00;99.90
15937;DHT22;9163;48.818;8.976;2023-12-20T01:23:32;5.00;99.90
15937;DHT22;9163;48.818;8.976;2023-12-20T01:26:01;5.10;99.90
15937;DHT22;9163;48.818;8.976;2023-12-20T01:28:28;5.00;99.90
15937;DHT22;9163;48.818;8.976;2023-12-20T01:30:56;5.10;99.90
15937;DHT22;9163;48.818;8.976;2023-12-20T01:33:23;5.20;99.90
15937;DHT22;9163;48.818;8.976;2023-12-20T01:35:50;5.20;99.90
15937;DHT22;9163;48.818;8.976;2023-12-20T01:38:17;5.20;99.90
15937;DHT22;9163;48.818;8.976;2023-12-20T01:40:46;5.30;99.90
15937;DHT22;9163;48.818;8.976;2023-12-20T01:43:14;5.30;99.90
15937;DHT22;9163;48.818;8.976;2023-12-20T01:45:41;5.40;99.90
15937;DHT22;9163;48.818;8.976;2023-12-20T01:48:09;5.40;99.90
15937;DHT22;9163;48.818;8.976;2023-12-20T01:50:37;5.50;99.90
15937;DHT22;9163;48.818;8.976;2023-12-20T01:53:06;5.60;99.90
15937;DHT22;9163;48.818;8.976;2023-12-20T01:55:35;5.60;99.90
15937;DHT22;9163;48.818;8.976;2023-12-20T01:58:04;5.60;99.90
15937;DHT22;9163;48.818;8.976;2023-12-20T02:00:33;5.70;99.90
15937;DHT22;9163;48.818;8.976;2023-12-20T02:03:01;5.70;99.90
15937;DHT22;9163;48.818;8.976;2023-12-20T02:05:29;5.80;99.90
15937;DHT22;9163;48.818;8.976;2023-12-20T02:07:57;5.80;99.90
15937;DHT22;9163;48.818;8.976;2023-12-20T02:10:24;5.70;99.90
15937;DHT22;9163;48.818;8.976;2023-12-20T02:12:52;5.80;99.90
15937;DHT22;9163;48.818;8.976;2023-12-20T02:15:19;5.70;99.90
15937;DHT22;9163;48.818;8.976;2023-12-20T02:17:49;5.70;99.90
15937;DHT22;9163;48.818;8.976;2023-12-20T02:20:16;5.70;99.90
15937;DHT22;9163;48.818;8.976;2023-12-20T02:22:45;5.70;99.90
15937;DHT22;9163;48.818;8.976;2023-12-20T02:25:12;5.70;99.90
15937;DHT22;9163;48.818;8.976;2023-12-20T02:27:40;5.60;99.90
15937;DHT22;9163;48.818;8.976;2023-12-20T02:30:08;5.60;99.90
15937;DHT22;9163;48.818;8.976;2023-12-20T02:32:36;5.50;99.90
15937;DHT22;9163;48.818;8.976;2023-12-20T02:35:03;5.50;99.90
15937;DHT22;9163;48.818;8.976;2023-12-20T02:37:30;5.50;99.90
15937;DHT22;9163;48.818;8.976;2023-12-20T02:40:00;5.50;99.90
15937;DHT22;9163;48.818;8.976;2023-12-20T02:42:29;5.40;99.90
15937;DHT22;9163;48.818;8.976;2023-12-20T02:44:56;5.40;99.90
15937;DHT22;9163;48.818;8.976;2023-12-20T02:47:23;5.40;99.90
15937;DHT22;9163;48.818;8.976;2023-12-20T02:49:50;5.30;99.90
15937;DHT22;9163;48.818;8.976;2023-12-20T02:52:18;5.30;99.90
15937;DHT22;9163;48.818;8.976;2023-12-20T02:54:46;5.30;99.90
15937;DHT22;9163;48.818;8.976;2023-12-20T02:57:14;5.30;99.90
15937;DHT22;9163;48.818;8.976;2023-12-20T02:59:41;5.20;99.90
15937;DHT22;9163;48.818;8.976;2023-12-20T03:02:09;5.20;99.90
15937;DHT22;9163;48.818;8.976;2023-12-20T03:04:36;5.20;99.90
15937;DHT22;9163;48.818;8.976;2023-12-20T03:07:03;5.10;99.90
15937;DHT22;9163;48.818;8.976;2023-12-20T03:09:30;5.10;99.90
15937;DHT22;9163;48.818;8.976;2023-12-20T03:11:57;5.00;99.90
15937;DHT22;9163;48.818;8.976;2023-12-20T03:14:26;5.00;99.90
15937;DHT22;9163;48.818;8.976;2023-12-20T03:16:53;5.00;99.90
15937;DHT22;9163;48.818;8.976;2023-12-20T03:19:21;4.90;99.90
15937;DHT22;9163;48.818;8.976;2023-12-20T03:21:48;4.90;99.90
15937;DHT22;9163;48.818;8.976;2023-12-20T03:24:16;4.80;99.90
15937;DHT22;9163;48.818;8.976;2023-12-20T03:26:43;4.80;99.90
15937;DHT22;9163;48.818;8.976;2023-12-20T03:29:10;4.80;99.90
15937;DHT22;9163;48.818;8.976;2023-12-20T03:31:39;4.80;99.90
15937;DHT22;9163;48.818;8.976;2023-12-20T03:34:06;4.80;99.90
15937;DHT22;9163;48.818;8.976;2023-12-20T03:36:33;4.70;99.90
15937;DHT22;9163;48.818;8.976;2023-12-20T03:39:00;4.70;99.90
15937;DHT22;9163;48.818;8.976;2023-12-20T03:41:27;4.70;99.90
15937;DHT22;9163;48.818;8.976;2023-12-20T03:43:55;4.70;99.90
15937;DHT22;9163;48.818;8.976;2023-12-20T03:46:22;4.70;99.90
15937;DHT22;9163;48.818;8.976;2023-12-20T03:48:50;4.60;99.90
15937;DHT22;9163;48.818;8.976;2023-12-20T03:51:17;4.60;99.90
15937;DHT22;9163;48.818;8.976;2023-12-20T03:53:45;4.60;99.90
15937;DHT22;9163;48.818;8.976;2023-12-20T03:56:12;4.60;99.90
15937;DHT22;9163;48.818;8.976;2023-12-20T03:58:39;4.60;99.90
15937;DHT22;9163;48.818;8.976;2023-12-20T04:01:09;4.60;99.90
15937;DHT22;9163;48.818;8.976;2023-12-20T04:03:37;4.60;99.90
15937;DHT22;9163;48.818;8.976;2023-12-20T04:06:06;4.50;99.90
15937;DHT22;9163;48.818;8.976;2023-12-20T04:08:33;4.50;99.90
15937;DHT22;9163;48.818;8.976;2023-12-20T04:11:01;4.50;99.90
15937;DHT22;9163;48.818;8.976;2023-12-20T04:13:28;4.50;99.90
15937;DHT22;9163;48.818;8.976;2023-12-20T04:15:55;4.50;99.90
15937;DHT22;9163;48.818;8.976;2023-12-20T04:18:22;4.50;99.90
15937;DHT22;9163;48.818;8.976;2023-12-20T04:20:49;4.40;99.90
15937;DHT22;9163;48.818;8.976;2023-12-20T04:23:18;4.40;99.90
15937;DHT22;9163;48.818;8.976;2023-12-20T04:25:46;4.40;99.90
15937;DHT22;9163;48.818;8.976;2023-12-20T04:28:13;4.40;99.90
15937;DHT22;9163;48.818;8.976;2023-12-20T04:30:41;4.40;99.90
15937;DHT22;9163;48.818;8.976;2023-12-20T04:33:09;4.40;99.90
15937;DHT22;9163;48.818;8.976;2023-12-20T04:35:36;4.40;99.90
15937;DHT22;9163;48.818;8.976;2023-12-20T04:38:03;4.30;99.90
15937;DHT22;9163;48.818;8.976;2023-12-20T04:40:32;4.30;99.90
15937;DHT22;9163;48.818;8.976;2023-12-20T04:42:59;4.30;99.90
15937;DHT22;9163;48.818;8.976;2023-12-20T04:45:26;4.30;99.90
15937;DHT22;9163;48.818;8.976;2023-12-20T04:47:55;4.30;99.90
15937;DHT22;9163;48.818;8.976;2023-12-20T04:50:23;4.30;99.90
15937;DHT22;9163;48.818;8.976;2023-12-20T04:52:50;4.30;99.90
15937;DHT22;9163;48.818;8.976;2023-12-20T04:55:18;4.30;99.90
15937;DHT22;9163;48.818;8.976;2023-12-20T04:57:46;4.30;99.90
15937;DHT22;9163;48.818;8.976;2023-12-20T05:00:14;4.30;99.90
15937;DHT22;9163;48.818;8.976;2023-12-20T05:02:41;4.30;99.90
15937;DHT22;9163;48.818;8.976;2023-12-20T05:05:09;4.30;99.90
15937;DHT22;9163;48.818;8.976;2023-12-20T05:07:36;4.30;99.90
15937;DHT22;9163;48.818;8.976;2023-12-20T05:10:04;4.30;99.90
15937;DHT22;9163;48.818;8.976;2023-12-20T05:12:31;4.30;99.90
15937;DHT22;9163;48.818;8.976;2023-12-20T05:15:00;4.30;99.90
15937;DHT22;9163;48.818;8.976;2023-12-20T05:17:27;4.30;99.90
15937;DHT22;9163;48.818;8.976;2023-12-20T05:19:54;4.30;99.90
15937;DHT22;9163;48.818;8.976;2023-12-20T05:22:21;4.30;99.90
15937;DHT22;9163;48.818;8.976;2023-12-20T05:24:48;4.40;99.90
15937;DHT22;9163;48.818;8.976;2023-12-20T05:27:16;4.40;99.90
15937;DHT22;9163;48.818;8.976;2023-12-20T05:29:43;4.40;99.90
15937;DHT22;9163;48.818;8.976;2023-12-20T05:32:11;4.40;99.90
15937;DHT22;9163;48.818;8.976;2023-12-20T05:34:39;4.50;99.90
15937;DHT22;9163;48.818;8.976;2023-12-20T05:37:06;4.40;99.90
15937;DHT22;9163;48.818;8.976;2023-12-20T05:39:33;4.40;99.90
15937;DHT22;9163;48.818;8.976;2023-12-20T05:42:00;4.50;99.90
15937;DHT22;9163;48.818;8.976;2023-12-20T05:44:28;4.50;99.90
15937;DHT22;9163;48.818;8.976;2023-12-20T05:46:55;4.50;99.90
15937;DHT22;9163;48.818;8.976;2023-12-20T05:49:23;4.40;99.90
15937;DHT22;9163;48.818;8.976;2023-12-20T05:51:51;4.50;99.90
15937;DHT22;9163;48.818;8.976;2023-12-20T05:54:18;4.50;99.90
15937;DHT22;9163;48.818;8.976;2023-12-20T05:56:45;4.50;99.90
15937;DHT22;9163;48.818;8.976;2023-12-20T05:59:12;4.50;99.90
15937;DHT22;9163;48.818;8.976;2023-12-20T06:01:39;4.50;99.90
15937;DHT22;9163;48.818;8.976;2023-12-20T06:04:07;4.50;99.90
15937;DHT22;9163;48.818;8.976;2023-12-20T06:06:40;4.50;99.90
15937;DHT22;9163;48.818;8.976;2023-12-20T06:09:08;4.50;99.90
15937;DHT22;9163;48.818;8.976;2023-12-20T06:11:35;4.50;99.90
15937;DHT22;9163;48.818;8.976;2023-12-20T06:14:02;4.50;99.90
15937;DHT22;9163;48.818;8.976;2023-12-20T06:16:29;4.60;99.90
15937;DHT22;9163;48.818;8.976;2023-12-20T06:18:57;4.50;99.90
15937;DHT22;9163;48.818;8.976;2023-12-20T06:21:24;4.60;99.90
15937;DHT22;9163;48.818;8.976;2023-12-20T06:23:52;4.60;99.90
15937;DHT22;9163;48.818;8.976;2023-12-20T06:26:20;4.60;99.90
15937;DHT22;9163;48.818;8.976;2023-12-20T06:28:48;4.60;99.90
15937;DHT22;9163;48.818;8.976;2023-12-20T06:31:15;4.60;99.90
15937;DHT22;9163;48.818;8.976;2023-12-20T06:33:43;4.60;99.90
15937;DHT22;9163;48.818;8.976;2023-12-20T06:36:11;4.70;99.90
15937;DHT22;9163;48.818;8.976;2023-12-20T06:38:39;4.60;99.90
15937;DHT22;9163;48.818;8.976;2023-12-20T06:41:13;4.70;99.90
15937;DHT22;9163;48.818;8.976;2023-12-20T06:43:40;4.70;99.90
15937;DHT22;9163;48.818;8.976;2023-12-20T06:46:08;4.70;99.90
15937;DHT22;9163;48.818;8.976;2023-12-20T06:48:35;4.80;99.90
15937;DHT22;9163;48.818;8.976;2023-12-20T06:51:02;4.80;99.90
15937;DHT22;9163;48.818;8.976;2023-12-20T06:53:30;4.80;99.90
15937;DHT22;9163;48.818;8.976;2023-12-20T06:55:57;4.80;99.90
15937;DHT22;9163;48.818;8.976;2023-12-20T06:58:25;4.80;99.90
15937;DHT22;9163;48.818;8.976;2023-12-20T07:00:52;4.80;99.90
15937;DHT22;9163;48.818;8.976;2023-12-20T07:03:20;4.90;99.90
15937;DHT22;9163;48.818;8.976;2023-12-20T07:05:47;4.80;99.90
15937;DHT22;9163;48.818;8.976;2023-12-20T07:08:14;4.80;99.90
15937;DHT22;9163;48.818;8.976;2023-12-20T07:10:41;4.80;99.90
15937;DHT22;9163;48.818;8.976;2023-12-20T07:13:09;4.90;99.90
15937;DHT22;9163;48.818;8.976;2023-12-20T07:15:37;4.80;99.90
15937;DHT22;9163;48.818;8.976;2023-12-20T07:18:05;4.70;99.90
15937;DHT22;9163;48.818;8.976;2023-12-20T07:20:33;4.70;99.90
15937;DHT22;9163;48.818;8.976;2023-12-20T07:23:00;4.60;99.90
15937;DHT22;9163;48.818;8.976;2023-12-20T07:25:27;4.70;99.90
15937;DHT22;9163;48.818;8.976;2023-12-20T07:27:54;4.60;99.90
15937;DHT22;9163;48.818;8.976;2023-12-20T07:30:21;4.60;99.90
15937;DHT22;9163;48.818;8.976;2023-12-20T07:32:50;4.60;99.90
15937;DHT22;9163;48.818;8.976;2023-12-20T07:35:18;4.50;99.90
15937;DHT22;9163;48.818;8.976;2023-12-20T07:37:45;4.50;99.90
15937;DHT22;9163;48.818;8.976;2023-12-20T07:40:13;4.50;99.90
15937;DHT22;9163;48.818;8.976;2023-12-20T07:42:42;4.50;99.90
15937;DHT22;9163;48.818;8.976;2023-12-20T07:45:09;4.50;99.90
15937;DHT22;9163;48.818;8.976;2023-12-20T07:47:37;4.40;99.90
15937;DHT22;9163;48.818;8.976;2023-12-20T07:50:06;4.40;99.90
15937;DHT22;9163;48.818;8.976;2023-12-20T07:52:34;4.40;99.90
15937;DHT22;9163;48.818;8.976;2023-12-20T07:55:01;4.30;99.90
15937;DHT22;9163;48.818;8.976;2023-12-20T07:57:29;4.30;99.90
15937;DHT22;9163;48.818;8.976;2023-12-20T07:59:56;4.30;99.90
15937;DHT22;9163;48.818;8.976;2023-12-20T08:02:23;4.30;99.90
15937;DHT22;9163;48.818;8.976;2023-12-20T08:04:51;4.30;99.90
15937;DHT22;9163;48.818;8.976;2023-12-20T08:07:19;4.30;99.90
15937;DHT22;9163;48.818;8.976;2023-12-20T08:09:46;4.30;99.90
15937;DHT22;9163;48.818;8.976;2023-12-20T08:12:14;4.30;99.90
15937;DHT22;9163;48.818;8.976;2023-12-20T08:14:42;4.30;99.90
15937;DHT22;9163;48.818;8.976;2023-12-20T08:17:10;4.30;99.90
15937;DHT22;9163;48.818;8.976;2023-12-20T08:19:38;4.30;99.90
15937;DHT22;9163;48.818;8.976;2023-12-20T08:22:05;4.40;99.90
15937;DHT22;9163;48.818;8.976;2023-12-20T08:24:34;4.40;99.90
15937;DHT22;9163;48.818;8.976;2023-12-20T08:27:01;4.50;99.90
15937;DHT22;9163;48.818;8.976;2023-12-20T08:29:28;4.50;99.90
15937;DHT22;9163;48.818;8.976;2023-12-20T08:31:56;4.40;99.90
15937;DHT22;9163;48.818;8.976;2023-12-20T08:34:23;4.40;99.90
15937;DHT22;9163;48.818;8.976;2023-12-20T08:36:50;4.80;99.90
15937;DHT22;9163;48.818;8.976;2023-12-20T08:39:18;5.40;99.90
15937;DHT22;9163;48.818;8.976;2023-12-20T08:41:46;6.50;99.90
15937;DHT22;9163;48.818;8.976;2023-12-20T08:44:14;7.50;99.90
15937;DHT22;9163;48.818;8.976;2023-12-20T08:46:41;8.00;71.10
15937;DHT22;9163;48.818;8.976;2023-12-20T08:49:08;8.50;42.30
15937;DHT22;9163;48.818;8.976;2023-12-20T08:51:36;8.90;12.80
15937;DHT22;9163;48.818;8.976;2023-12-20T08:54:06;9.50;1.00
15937;DHT22;9163;48.818;8.976;2023-12-20T08:56:34;10.20;1.00
15937;DHT22;9163;48.818;8.976;2023-12-20T08:59:03;10.10;1.00
15937;DHT22;9163;48.818;8.976;2023-12-20T09:01:30;10.70;1.00
15937;DHT22;9163;48.818;8.976;2023-12-20T09:03:57;10.90;1.00
15937;DHT22;9163;48.818;8.976;2023-12-20T09:06:24;10.50;1.00
15937;DHT22;9163;48.818;8.976;2023-12-20T09:08:52;10.20;1.00
15937;DHT22;9163;48.818;8.976;2023-12-20T09:11:19;10.20;1.00
15937;DHT22;9163;48.818;8.976;2023-12-20T09:13:46;10.40;1.00
15937;DHT22;9163;48.818;8.976;2023-12-20T09:16:15;10.00;1.00
15937;DHT22;9163;48.818;8.976;2023-12-20T09:18:42;10.70;1.00
15937;DHT22;9163;48.818;8.976;2023-12-20T09:21:09;11.20;1.00
15937;DHT22;9163;48.818;8.976;2023-12-20T09:23:36;10.60;1.00
15937;DHT22;9163;48.818;8.976;2023-12-20T09:26:04;11.90;1.00
15937;DHT22;9163;48.818;8.976;2023-12-20T09:28:31;12.10;1.00
15937;DHT22;9163;48.818;8.976;2023-12-20T09:31:04;12.00;1.00
15937;DHT22;9163;48.818;8.976;2023-12-20T09:33:33;12.60;1.00
15937;DHT22;9163;48.818;8.976;2023-12-20T09:36:00;12.80;1.00
15937;DHT22;9163;48.818;8.976;2023-12-20T09:38:27;12.00;1.00
15937;DHT22;9163;48.818;8.976;2023-12-20T09:40:55;11.40;1.00
15937;DHT22;9163;48.818;8.976;2023-12-20T09:43:24;12.00;1.00
15937;DHT22;9163;48.818;8.976;2023-12-20T09:45:53;11.70;1.00
15937;DHT22;9163;48.818;8.976;2023-12-20T09:48:20;11.00;1.00
15937;DHT22;9163;48.818;8.976;2023-12-20T09:50:49;11.30;1.00
15937;DHT22;9163;48.818;8.976;2023-12-20T09:53:18;10.90;1.00
15937;DHT22;9163;48.818;8.976;2023-12-20T09:55:46;11.50;1.00
15937;DHT22;9163;48.818;8.976;2023-12-20T09:58:15;11.20;1.00
15937;DHT22;9163;48.818;8.976;2023-12-20T10:00:42;10.50;1.00
15937;DHT22;9163;48.818;8.976;2023-12-20T10:03:10;10.10;1.00
15937;DHT22;9163;48.818;8.976;2023-12-20T10:05:39;8.90;1.00
15937;DHT22;9163;48.818;8.976;2023-12-20T10:08:11;7.60;1.00
15937;DHT22;9163;48.818;8.976;2023-12-20T10:10:38;7.10;1.00
15937;DHT22;9163;48.818;8.976;2023-12-20T10:13:07;6.40;1.00
15937;DHT22;9163;48.818;8.976;2023-12-20T10:15:34;6.10;1.00
15937;DHT22;9163;48.818;8.976;2023-12-20T10:18:03;6.00;1.00
15937;DHT22;9163;48.818;8.976;2023-12-20T10:20:31;6.00;1.30
15937;DHT22;9163;48.818;8.976;2023-12-20T10:22:59;5.80;25.90
15937;DHT22;9163;48.818;8.976;2023-12-20T10:25:28;5.70;41.30
15937;DHT22;9163;48.818;8.976;2023-12-20T10:28:10;5.40;62.20
15937;DHT22;9163;48.818;8.976;2023-12-20T10:30:38;5.30;71.70
15937;DHT22;9163;48.818;8.976;2023-12-20T10:33:06;5.20;72.80
15937;DHT22;9163;48.818;8.976;2023-12-20T10:35:34;5.30;63.50
15937;DHT22;9163;48.818;8.976;2023-12-20T10:38:04;5.10;54.00
15937;DHT22;9163;48.818;8.976;2023-12-20T10:40:34;5.10;71.40
15937;DHT22;9163;48.818;8.976;2023-12-20T10:43:04;5.10;52.50
15937;DHT22;9163;48.818;8.976;2023-12-20T10:45:31;4.90;26.80
15937;DHT22;9163;48.818;8.976;2023-12-20T10:47:59;4.90;58.10
15937;DHT22;9163;48.818;8.976;2023-12-20T10:50:27;4.80;45.90
15937;DHT22;9163;48.818;8.976;2023-12-20T10:52:54;4.80;26.80
15937;DHT22;9163;48.818;8.976;2023-12-20T10:55:22;4.70;13.70
15937;DHT22;9163;48.818;8.976;2023-12-20T10:57:52;4.80;15.90
15937;DHT22;9163;48.818;8.976;2023-12-20T11:00:21;4.80;17.70
15937;DHT22;9163;48.818;8.976;2023-12-20T11:02:50;4.80;42.40
15937;DHT22;9163;48.818;8.976;2023-12-20T11:05:25;4.90;69.70
15937;DHT22;9163;48.818;8.976;2023-12-20T11:07:58;5.00;79.10
15937;DHT22;9163;48.818;8.976;2023-12-20T11:10:34;4.90;78.10
15937;DHT22;9163;48.818;8.976;2023-12-20T11:13:10;4.80;99.90
15937;DHT22;9163;48.818;8.976;2023-12-20T11:15:40;4.80;99.90
15937;DHT22;9163;48.818;8.976;2023-12-20T11:18:09;4.70;82.10
15937;DHT22;9163;48.818;8.976;2023-12-20T11:20:37;4.80;75.80
15937;DHT22;9163;48.818;8.976;2023-12-20T11:23:05;4.80;80.10
15937;DHT22;9163;48.818;8.976;2023-12-20T11:25:48;4.90;91.00
15937;DHT22;9163;48.818;8.976;2023-12-20T11:28:21;4.90;53.40
15937;DHT22;9163;48.818;8.976;2023-12-20T11:30:50;4.80;44.00
15937;DHT22;9163;48.818;8.976;2023-12-20T11:33:21;4.80;66.30
15937;DHT22;9163;48.818;8.976;2023-12-20T11:35:49;4.70;61.30
15937;DHT22;9163;48.818;8.976;2023-12-20T11:38:17;4.70;54.50
15937;DHT22;9163;48.818;8.976;2023-12-20T11:40:44;4.70;32.30
15937;DHT22;9163;48.818;8.976;2023-12-20T11:43:11;4.80;66.30
15937;DHT22;9163;48.818;8.976;2023-12-20T11:45:49;4.80;37.80
15937;DHT22;9163;48.818;8.976;2023-12-20T11:48:17;4.70;63.90
15937;DHT22;9163;48.818;8.976;2023-12-20T11:50:45;4.70;14.40
15937;DHT22;9163;48.818;8.976;2023-12-20T11:53:12;4.80;41.20
15937;DHT22;9163;48.818;8.976;2023-12-20T11:55:39;4.80;26.20
15937;DHT22;9163;48.818;8.976;2023-12-20T11:58:07;4.90;13.60
15937;DHT22;9163;48.818;8.976;2023-12-20T12:00:35;4.90;15.70
15937;DHT22;9163;48.818;8.976;2023-12-20T12:03:04;5.00;8.80
15937;DHT22;9163;48.818;8.976;2023-12-20T12:05:31;5.10;10.20
15937;DHT22;9163;48.818;8.976;2023-12-20T12:07:59;5.20;9.20
15937;DHT22;9163;48.818;8.976;2023-12-20T12:10:26;5.30;7.20
15937;DHT22;9163;48.818;8.976;2023-12-20T12:12:53;5.30;1.00
15937;DHT22;9163;48.818;8.976;2023-12-20T12:15:21;5.40;1.00
15937;DHT22;9163;48.818;8.976;2023-12-20T12:17:53;5.40;1.00
15937;DHT22;9163;48.818;8.976;2023-12-20T12:20:23;5.40;1.00
15937;DHT22;9163;48.818;8.976;2023-12-20T12:22:58;5.50;1.00
15937;DHT22;9163;48.818;8.976;2023-12-20T12:25:25;5.50;1.00
15937;DHT22;9163;48.818;8.976;2023-12-20T12:27:53;5.60;1.00
15937;DHT22;9163;48.818;8.976;2023-12-20T12:30:20;5.60;1.00
15937;DHT22;9163;48.818;8.976;2023-12-20T12:32:47;5.70;1.00
15937;DHT22;9163;48.818;8.976;2023-12-20T12:35:15;5.50;1.00
15937;DHT22;9163;48.818;8.976;2023-12-20T12:37:43;5.50;1.00
15937;DHT22;9163;48.818;8.976;2023-12-20T12:40:12;5.40;1.00
15937;DHT22;9163;48.818;8.976;2023-12-20T12:42:40;5.40;1.00
15937;DHT22;9163;48.818;8.976;2023-12-20T12:45:09;5.30;1.00
15937;DHT22;9163;48.818;8.976;2023-12-20T12:47:37;5.30;1.00
15937;DHT22;9163;48.818;8.976;2023-12-20T12:50:05;5.10;1.00
15937;DHT22;9163;48.818;8.976;2023-12-20T12:52:33;5.20;1.00
15937;DHT22;9163;48.818;8.976;2023-12-20T12:55:02;5.20;1.00
15937;DHT22;9163;48.818;8.976;2023-12-20T12:57:30;5.20;1.00
15937;DHT22;9163;48.818;8.976;2023-12-20T12:59:58;5.20;1.00
15937;DHT22;9163;48.818;8.976;2023-12-20T13:02:25;5.20;1.00
15937;DHT22;9163;48.818;8.976;2023-12-20T13:04:52;5.30;1.00
15937;DHT22;9163;48.818;8.976;2023-12-20T13:07:19;5.30;1.00
15937;DHT22;9163;48.818;8.976;2023-12-20T13:09:47;5.30;1.00
15937;DHT22;9163;48.818;8.976;2023-12-20T13:12:15;6.80;1.00
15937;DHT22;9163;48.818;8.976;2023-12-20T13:14:42;7.00;1.00
15937;DHT22;9163;48.818;8.976;2023-12-20T13:17:11;8.50;1.00
15937;DHT22;9163;48.818;8.976;2023-12-20T13:19:38;9.50;1.00
15937;DHT22;9163;48.818;8.976;2023-12-20T13:22:05;9.80;1.00
15937;DHT22;9163;48.818;8.976;2023-12-20T13:24:34;10.20;1.00
15937;DHT22;9163;48.818;8.976;2023-12-20T13:27:01;10.10;1.00
15937;DHT22;9163;48.818;8.976;2023-12-20T13:29:30;9.20;1.00
15937;DHT22;9163;48.818;8.976;2023-12-20T13:31:57;8.20;1.00
15937;DHT22;9163;48.818;8.976;2023-12-20T13:34:24;7.30;1.00
15937;DHT22;9163;48.818;8.976;2023-12-20T13:36:52;6.90;1.00
15937;DHT22;9163;48.818;8.976;2023-12-20T13:39:19;6.40;1.00
15937;DHT22;9163;48.818;8.976;2023-12-20T13:41:47;6.10;1.00
15937;DHT22;9163;48.818;8.976;2023-12-20T13:44:14;5.90;1.00
15937;DHT22;9163;48.818;8.976;2023-12-20T13:46:43;5.70;1.00
15937;DHT22;9163;48.818;8.976;2023-12-20T13:49:11;5.50;1.00
15937;DHT22;9163;48.818;8.976;2023-12-20T13:51:39;5.30;1.00
15937;DHT22;9163;48.818;8.976;2023-12-20T13:54:07;5.10;1.00
15937;DHT22;9163;48.818;8.976;2023-12-20T13:56:34;5.00;1.00
15937;DHT22;9163;48.818;8.976;2023-12-20T13:59:01;4.90;2.20
15937;DHT22;9163;48.818;8.976;2023-12-20T14:01:29;4.90;12.10
15937;DHT22;9163;48.818;8.976;2023-12-20T14:03:57;4.90;28.40
15937;DHT22;9163;48.818;8.976;2023-12-20T14:06:26;4.90;31.50
15937;DHT22;9163;48.818;8.976;2023-12-20T14:08:53;4.80;51.00
15937;DHT22;9163;48.818;8.976;2023-12-20T14:11:20;4.70;66.00
15937;DHT22;9163;48.818;8.976;2023-12-20T14:13:48;4.70;98.10
15937;DHT22;9163;48.818;8.976;2023-12-20T14:16:15;4.70;97.00
15937;DHT22;9163;48.818;8.976;2023-12-20T14:18:42;4.70;87.70
15937;DHT22;9163;48.818;8.976;2023-12-20T14:21:11;4.60;99.90
15937;DHT22;9163;48.818;8.976;2023-12-20T14:23:38;4.50;99.90
15937;DHT22;9163;48.818;8.976;2023-12-20T14:26:05;4.50;99.90
15937;DHT22;9163;48.818;8.976;2023-12-20T14:28:32;4.50;99.90
15937;DHT22;9163;48.818;8.976;2023-12-20T14:31:00;4.50;99.90
15937;DHT22;9163;48.818;8.976;2023-12-20T14:33:27;4.40;99.90
15937;DHT22;9163;48.818;8.976;2023-12-20T14:35:54;4.30;99.90
15937;DHT22;9163;48.818;8.976;2023-12-20T14:38:23;4.30;99.90
15937;DHT22;9163;48.818;8.976;2023-12-20T14:40:51;4.30;99.90
15937;DHT22;9163;48.818;8.976;2023-12-20T14:43:18;4.30;99.90
15937;DHT22;9163;48.818;8.976;2023-12-20T14:45:48;4.30;99.90
15937;DHT22;9163;48.818;8.976;2023-12-20T14:48:16;4.30;99.90
15937;DHT22;9163;48.818;8.976;2023-12-20T14:50:44;4.30;99.90
15937;DHT22;9163;48.818;8.976;2023-12-20T14:53:14;4.30;99.90
15937;DHT22;9163;48.818;8.976;2023-12-20T14:55:43;4.30;99.90
15937;DHT22;9163;48.818;8.976;2023-12-20T14:58:11;4.30;99.90
15937;DHT22;9163;48.818;8.976;2023-12-20T15:00:38;4.40;99.90
15937;DHT22;9163;48.818;8.976;2023-12-20T15:03:05;4.30;99.90
15937;DHT22;9163;48.818;8.976;2023-12-20T15:05:32;4.40;99.90
15937;DHT22;9163;48.818;8.976;2023-12-20T15:08:00;4.30;99.90
15937;DHT22;9163;48.818;8.976;2023-12-20T15:10:27;4.40;99.90
15937;DHT22;9163;48.818;8.976;2023-12-20T15:12:56;4.40;99.90
15937;DHT22;9163;48.818;8.976;2023-12-20T15:15:23;4.40;99.90
15937;DHT22;9163;48.818;8.976;2023-12-20T15:17:50;4.40;99.90
15937;DHT22;9163;48.818;8.976;2023-12-20T15:20:17;4.30;99.90
15937;DHT22;9163;48.818;8.976;2023-12-20T15:22:45;4.30;99.90
15937;DHT22;9163;48.818;8.976;2023-12-20T15:25:12;4.30;99.90
15937;DHT22;9163;48.818;8.976;2023-12-20T15:27:45;4.40;99.90
15937;DHT22;9163;48.818;8.976;2023-12-20T15:30:18;4.40;99.90
15937;DHT22;9163;48.818;8.976;2023-12-20T15:32:45;4.40;99.90
15937;DHT22;9163;48.818;8.976;2023-12-20T15:35:12;4.40;99.90
15937;DHT22;9163;48.818;8.976;2023-12-20T15:37:40;4.40;99.90
15937;DHT22;9163;48.818;8.976;2023-12-20T15:40:08;4.40;99.90
15937;DHT22;9163;48.818;8.976;2023-12-20T15:42:36;4.40;99.90
15937;DHT22;9163;48.818;8.976;2023-12-20T15:45:05;4.40;99.90
15937;DHT22;9163;48.818;8.976;2023-12-20T15:47:34;4.40;99.90
15937;DHT22;9163;48.818;8.976;2023-12-20T15:50:03;4.30;99.90
15937;DHT22;9163;48.818;8.976;2023-12-20T15:52:30;4.30;99.90
15937;DHT22;9163;48.818;8.976;2023-12-20T15:54:57;4.30;99.90
15937;DHT22;9163;48.818;8.976;2023-12-20T15:57:25;4.30;99.90
15937;DHT22;9163;48.818;8.976;2023-12-20T15:59:52;4.30;99.90
15937;DHT22;9163;48.818;8.976;2023-12-20T16:02:20;4.30;99.90
15937;DHT22;9163;48.818;8.976;2023-12-20T16:04:49;4.20;99.90
15937;DHT22;9163;48.818;8.976;2023-12-20T16:07:17;4.20;99.90
15937;DHT22;9163;48.818;8.976;2023-12-20T16:09:44;4.10;99.90